sensor_id;sensor_type;location;lat;lon;timestamp;P1;durP1;ratioP1;P2;durP2;ratioP2
42296;SDS011;28985;47.456;19.016;2022-08-01T00:00:05;1.80;;;1.15;;
42296;SDS011;28985;47.456;19.016;2022-08-01T00:02:34;1.65;;;1.45;;
42296;SDS011;28985;47.456;19.016;2022-08-01T00:05:02;1.85;;;1.30;;
42296;SDS011;28985;47.456;19.016;2022-08-01T00:07:28;1.20;;;1.10;;
42296;SDS011;28985;47.456;19.016;2022-08-01T00:09:55;1.98;;;1.10;;
42296;SDS011;28985;47.456;19.016;2022-08-01T00:12:21;1.38;;;1.27;;
42296;SDS011;28985;47.456;19.016;2022-08-01T00:14:48;1.45;;;1.08;;
42296;SDS011;28985;47.456;19.016;2022-08-01T00:17:15;1.38;;;0.98;;
42296;SDS011;28985;47.456;19.016;2022-08-01T00:19:41;3.88;;;1.40;;
42296;SDS011;28985;47.456;19.016;2022-08-01T00:22:08;1.20;;;1.10;;
42296;SDS011;28985;47.456;19.016;2022-08-01T00:24:35;1.75;;;1.42;;
42296;SDS011;28985;47.456;19.016;2022-08-01T00:27:02;1.58;;;1.20;;
42296;SDS011;28985;47.456;19.016;2022-08-01T00:29:28;1.00;;;0.95;;
42296;SDS011;28985;47.456;19.016;2022-08-01T00:32:15;2.03;;;1.40;;
42296;SDS011;28985;47.456;19.016;2022-08-01T00:34:42;1.45;;;1.35;;
42296;SDS011;28985;47.456;19.016;2022-08-01T00:37:08;1.60;;;1.50;;
42296;SDS011;28985;47.456;19.016;2022-08-01T00:39:40;2.00;;;1.30;;
42296;SDS011;28985;47.456;19.016;2022-08-01T00:42:07;2.38;;;1.48;;
42296;SDS011;28985;47.456;19.016;2022-08-01T00:44:35;1.33;;;1.23;;
42296;SDS011;28985;47.456;19.016;2022-08-01T00:47:02;0.82;;;0.77;;
42296;SDS011;28985;47.456;19.016;2022-08-01T00:49:29;1.15;;;1.00;;
42296;SDS011;28985;47.456;19.016;2022-08-01T00:51:56;1.65;;;1.40;;
42296;SDS011;28985;47.456;19.016;2022-08-01T00:54:25;1.20;;;1.17;;
42296;SDS011;28985;47.456;19.016;2022-08-01T00:56:53;2.47;;;1.52;;
42296;SDS011;28985;47.456;19.016;2022-08-01T00:59:23;2.40;;;1.77;;
42296;SDS011;28985;47.456;19.016;2022-08-01T01:01:51;1.95;;;1.15;;
42296;SDS011;28985;47.456;19.016;2022-08-01T01:04:19;1.48;;;1.13;;
42296;SDS011;28985;47.456;19.016;2022-08-01T01:09:17;1.55;;;1.45;;
42296;SDS011;28985;47.456;19.016;2022-08-01T01:11:48;3.13;;;1.33;;
42296;SDS011;28985;47.456;19.016;2022-08-01T01:17:06;1.83;;;1.42;;
42296;SDS011;28985;47.456;19.016;2022-08-01T01:19:35;1.50;;;1.40;;
42296;SDS011;28985;47.456;19.016;2022-08-01T01:27:51;1.58;;;1.48;;
42296;SDS011;28985;47.456;19.016;2022-08-01T01:30:28;1.30;;;1.17;;
42296;SDS011;28985;47.456;19.016;2022-08-01T01:32:58;4.03;;;1.70;;
42296;SDS011;28985;47.456;19.016;2022-08-01T01:35:28;2.65;;;1.35;;
42296;SDS011;28985;47.456;19.016;2022-08-01T01:38:04;1.52;;;1.42;;
42296;SDS011;28985;47.456;19.016;2022-08-01T01:40:35;2.33;;;1.33;;
42296;SDS011;28985;47.456;19.016;2022-08-01T01:43:04;1.48;;;1.38;;
42296;SDS011;28985;47.456;19.016;2022-08-01T01:45:35;2.97;;;1.60;;
42296;SDS011;28985;47.456;19.016;2022-08-01T01:48:03;2.95;;;1.80;;
42296;SDS011;28985;47.456;19.016;2022-08-01T01:50:32;2.20;;;1.30;;
42296;SDS011;28985;47.456;19.016;2022-08-01T01:53:01;1.65;;;1.55;;
42296;SDS011;28985;47.456;19.016;2022-08-01T01:55:30;1.48;;;1.38;;
42296;SDS011;28985;47.456;19.016;2022-08-01T01:58:14;1.63;;;1.52;;
42296;SDS011;28985;47.456;19.016;2022-08-01T02:00:42;1.65;;;1.52;;
42296;SDS011;28985;47.456;19.016;2022-08-01T02:03:11;1.77;;;1.45;;
42296;SDS011;28985;47.456;19.016;2022-08-01T02:05:38;3.17;;;1.88;;
42296;SDS011;28985;47.456;19.016;2022-08-01T02:08:08;1.65;;;1.55;;
42296;SDS011;28985;47.456;19.016;2022-08-01T02:10:37;3.33;;;1.50;;
42296;SDS011;28985;47.456;19.016;2022-08-01T02:13:05;2.72;;;1.50;;
42296;SDS011;28985;47.456;19.016;2022-08-01T02:15:33;2.83;;;1.50;;
42296;SDS011;28985;47.456;19.016;2022-08-01T02:18:25;1.35;;;1.05;;
42296;SDS011;28985;47.456;19.016;2022-08-01T02:20:52;1.98;;;1.35;;
42296;SDS011;28985;47.456;19.016;2022-08-01T02:23:21;2.60;;;2.25;;
42296;SDS011;28985;47.456;19.016;2022-08-01T02:25:50;3.55;;;1.60;;
42296;SDS011;28985;47.456;19.016;2022-08-01T02:28:38;2.78;;;1.30;;
42296;SDS011;28985;47.456;19.016;2022-08-01T02:31:12;1.88;;;1.55;;
42296;SDS011;28985;47.456;19.016;2022-08-01T02:33:41;2.90;;;2.03;;
42296;SDS011;28985;47.456;19.016;2022-08-01T02:36:14;4.82;;;1.85;;
42296;SDS011;28985;47.456;19.016;2022-08-01T02:38:59;4.50;;;1.83;;
42296;SDS011;28985;47.456;19.016;2022-08-01T02:41:29;1.92;;;1.70;;
42296;SDS011;28985;47.456;19.016;2022-08-01T02:43:59;3.13;;;1.45;;
42296;SDS011;28985;47.456;19.016;2022-08-01T02:46:49;21.02;;;4.53;;
42296;SDS011;28985;47.456;19.016;2022-08-01T02:49:18;25.45;;;5.10;;
42296;SDS011;28985;47.456;19.016;2022-08-01T02:51:47;22.30;;;5.20;;
42296;SDS011;28985;47.456;19.016;2022-08-01T02:54:15;10.48;;;3.22;;
42296;SDS011;28985;47.456;19.016;2022-08-01T02:56:44;4.95;;;1.65;;
42296;SDS011;28985;47.456;19.016;2022-08-01T02:59:15;1.60;;;1.13;;
42296;SDS011;28985;47.456;19.016;2022-08-01T03:01:47;4.90;;;1.73;;
42296;SDS011;28985;47.456;19.016;2022-08-01T03:04:16;2.20;;;1.60;;
42296;SDS011;28985;47.456;19.016;2022-08-01T03:06:45;4.85;;;1.73;;
42296;SDS011;28985;47.456;19.016;2022-08-01T03:09:13;4.75;;;1.63;;
42296;SDS011;28985;47.456;19.016;2022-08-01T03:11:42;2.90;;;1.27;;
42296;SDS011;28985;47.456;19.016;2022-08-01T03:14:10;4.75;;;1.70;;
42296;SDS011;28985;47.456;19.016;2022-08-01T03:16:40;2.88;;;1.90;;
42296;SDS011;28985;47.456;19.016;2022-08-01T03:19:08;4.30;;;1.52;;
42296;SDS011;28985;47.456;19.016;2022-08-01T03:21:37;2.20;;;1.42;;
42296;SDS011;28985;47.456;19.016;2022-08-01T03:24:05;3.92;;;1.80;;
42296;SDS011;28985;47.456;19.016;2022-08-01T03:26:33;1.48;;;1.33;;
42296;SDS011;28985;47.456;19.016;2022-08-01T03:29:04;3.63;;;1.33;;
42296;SDS011;28985;47.456;19.016;2022-08-01T03:31:36;5.80;;;1.95;;
42296;SDS011;28985;47.456;19.016;2022-08-01T03:34:04;3.92;;;1.63;;
42296;SDS011;28985;47.456;19.016;2022-08-01T03:36:32;3.72;;;1.73;;
42296;SDS011;28985;47.456;19.016;2022-08-01T03:39:01;2.20;;;1.80;;
42296;SDS011;28985;47.456;19.016;2022-08-01T03:41:32;2.08;;;1.50;;
42296;SDS011;28985;47.456;19.016;2022-08-01T03:44:05;2.20;;;2.00;;
42296;SDS011;28985;47.456;19.016;2022-08-01T03:46:39;10.15;;;2.33;;
42296;SDS011;28985;47.456;19.016;2022-08-01T03:49:11;1.90;;;1.80;;
42296;SDS011;28985;47.456;19.016;2022-08-01T03:51:49;5.38;;;2.30;;
42296;SDS011;28985;47.456;19.016;2022-08-01T03:54:20;2.85;;;2.25;;
42296;SDS011;28985;47.456;19.016;2022-08-01T03:56:49;1.60;;;1.50;;
42296;SDS011;28985;47.456;19.016;2022-08-01T03:59:18;1.55;;;1.45;;
42296;SDS011;28985;47.456;19.016;2022-08-01T04:01:45;3.08;;;1.70;;
42296;SDS011;28985;47.456;19.016;2022-08-01T04:04:12;1.92;;;1.77;;
42296;SDS011;28985;47.456;19.016;2022-08-01T04:06:40;2.15;;;1.50;;
42296;SDS011;28985;47.456;19.016;2022-08-01T04:09:07;2.90;;;1.40;;
42296;SDS011;28985;47.456;19.016;2022-08-01T04:11:38;1.65;;;1.55;;
42296;SDS011;28985;47.456;19.016;2022-08-01T04:14:06;1.60;;;1.48;;
42296;SDS011;28985;47.456;19.016;2022-08-01T04:16:34;9.77;;;2.13;;
42296;SDS011;28985;47.456;19.016;2022-08-01T04:19:01;5.38;;;3.38;;
42296;SDS011;28985;47.456;19.016;2022-08-01T04:21:29;4.45;;;1.73;;
42296;SDS011;28985;47.456;19.016;2022-08-01T04:23:59;1.92;;;1.45;;
42296;SDS011;28985;47.456;19.016;2022-08-01T04:26:32;3.08;;;1.85;;
42296;SDS011;28985;47.456;19.016;2022-08-01T04:29:01;3.75;;;1.30;;
42296;SDS011;28985;47.456;19.016;2022-08-01T04:31:31;2.22;;;1.60;;
42296;SDS011;28985;47.456;19.016;2022-08-01T04:33:58;1.80;;;1.65;;
42296;SDS011;28985;47.456;19.016;2022-08-01T04:36:28;2.90;;;1.65;;
42296;SDS011;28985;47.456;19.016;2022-08-01T04:38:58;2.63;;;1.75;;
42296;SDS011;28985;47.456;19.016;2022-08-01T04:41:26;2.00;;;1.90;;
42296;SDS011;28985;47.456;19.016;2022-08-01T04:43:53;3.45;;;1.60;;
42296;SDS011;28985;47.456;19.016;2022-08-01T04:46:21;3.35;;;1.85;;
42296;SDS011;28985;47.456;19.016;2022-08-01T04:48:48;2.97;;;1.75;;
42296;SDS011;28985;47.456;19.016;2022-08-01T04:51:17;2.88;;;1.70;;
42296;SDS011;28985;47.456;19.016;2022-08-01T04:53:48;2.13;;;1.70;;
42296;SDS011;28985;47.456;19.016;2022-08-01T04:56:17;4.18;;;1.80;;
42296;SDS011;28985;47.456;19.016;2022-08-01T04:58:45;5.85;;;1.70;;
42296;SDS011;28985;47.456;19.016;2022-08-01T05:01:12;2.70;;;1.60;;
42296;SDS011;28985;47.456;19.016;2022-08-01T05:03:39;2.00;;;1.90;;
42296;SDS011;28985;47.456;19.016;2022-08-01T05:06:06;4.75;;;2.25;;
42296;SDS011;28985;47.456;19.016;2022-08-01T05:08:32;3.30;;;1.60;;
42296;SDS011;28985;47.456;19.016;2022-08-01T05:10:59;2.88;;;2.08;;
42296;SDS011;28985;47.456;19.016;2022-08-01T05:13:27;2.95;;;1.63;;
42296;SDS011;28985;47.456;19.016;2022-08-01T05:15:53;2.50;;;2.08;;
42296;SDS011;28985;47.456;19.016;2022-08-01T05:18:20;2.22;;;1.98;;
42296;SDS011;28985;47.456;19.016;2022-08-01T05:20:53;2.80;;;1.40;;
42296;SDS011;28985;47.456;19.016;2022-08-01T05:23:20;1.95;;;1.83;;
42296;SDS011;28985;47.456;19.016;2022-08-01T05:26:06;1.63;;;1.52;;
42296;SDS011;28985;47.456;19.016;2022-08-01T05:28:34;2.92;;;2.47;;
42296;SDS011;28985;47.456;19.016;2022-08-01T05:31:02;2.60;;;1.77;;
42296;SDS011;28985;47.456;19.016;2022-08-01T05:33:29;2.42;;;2.00;;
42296;SDS011;28985;47.456;19.016;2022-08-01T05:35:56;2.35;;;1.90;;
42296;SDS011;28985;47.456;19.016;2022-08-01T05:38:22;2.63;;;2.42;;
42296;SDS011;28985;47.456;19.016;2022-08-01T05:40:49;2.38;;;2.13;;
42296;SDS011;28985;47.456;19.016;2022-08-01T05:43:15;6.15;;;2.00;;
42296;SDS011;28985;47.456;19.016;2022-08-01T05:45:42;2.70;;;2.50;;
42296;SDS011;28985;47.456;19.016;2022-08-01T05:48:09;3.55;;;2.90;;
42296;SDS011;28985;47.456;19.016;2022-08-01T05:50:35;3.08;;;2.40;;
42296;SDS011;28985;47.456;19.016;2022-08-01T05:53:02;3.00;;;2.83;;
42296;SDS011;28985;47.456;19.016;2022-08-01T05:55:28;3.65;;;3.35;;
42296;SDS011;28985;47.456;19.016;2022-08-01T05:57:55;3.60;;;3.30;;
42296;SDS011;28985;47.456;19.016;2022-08-01T06:00:21;4.05;;;3.05;;
42296;SDS011;28985;47.456;19.016;2022-08-01T06:02:48;2.95;;;2.67;;
42296;SDS011;28985;47.456;19.016;2022-08-01T06:05:15;2.95;;;2.75;;
42296;SDS011;28985;47.456;19.016;2022-08-01T06:07:41;4.15;;;2.10;;
42296;SDS011;28985;47.456;19.016;2022-08-01T06:10:08;2.42;;;2.28;;
42296;SDS011;28985;47.456;19.016;2022-08-01T06:12:35;4.82;;;2.88;;
42296;SDS011;28985;47.456;19.016;2022-08-01T06:15:03;2.78;;;2.47;;
42296;SDS011;28985;47.456;19.016;2022-08-01T06:17:30;2.33;;;2.00;;
42296;SDS011;28985;47.456;19.016;2022-08-01T06:19:57;2.20;;;2.10;;
42296;SDS011;28985;47.456;19.016;2022-08-01T06:22:24;2.85;;;2.65;;
42296;SDS011;28985;47.456;19.016;2022-08-01T06:24:50;3.63;;;2.47;;
42296;SDS011;28985;47.456;19.016;2022-08-01T06:27:17;2.40;;;2.30;;
42296;SDS011;28985;47.456;19.016;2022-08-01T06:29:47;3.22;;;2.90;;
42296;SDS011;28985;47.456;19.016;2022-08-01T06:32:22;3.33;;;3.03;;
42296;SDS011;28985;47.456;19.016;2022-08-01T06:34:52;4.03;;;3.70;;
42296;SDS011;28985;47.456;19.016;2022-08-01T06:37:19;3.42;;;3.13;;
42296;SDS011;28985;47.456;19.016;2022-08-01T06:39:45;4.43;;;3.80;;
42296;SDS011;28985;47.456;19.016;2022-08-01T06:42:12;4.03;;;3.83;;
42296;SDS011;28985;47.456;19.016;2022-08-01T06:44:41;5.72;;;3.63;;
42296;SDS011;28985;47.456;19.016;2022-08-01T06:47:07;4.03;;;3.75;;
42296;SDS011;28985;47.456;19.016;2022-08-01T06:49:34;4.15;;;3.83;;
42296;SDS011;28985;47.456;19.016;2022-08-01T06:52:01;4.80;;;4.40;;
42296;SDS011;28985;47.456;19.016;2022-08-01T06:54:29;4.82;;;4.63;;
42296;SDS011;28985;47.456;19.016;2022-08-01T06:56:56;4.60;;;4.40;;
42296;SDS011;28985;47.456;19.016;2022-08-01T06:59:22;4.68;;;4.25;;
42296;SDS011;28985;47.456;19.016;2022-08-01T07:01:49;4.50;;;4.30;;
42296;SDS011;28985;47.456;19.016;2022-08-01T07:04:16;4.35;;;3.95;;
42296;SDS011;28985;47.456;19.016;2022-08-01T07:06:42;4.70;;;4.50;;
42296;SDS011;28985;47.456;19.016;2022-08-01T07:09:09;4.65;;;4.30;;
42296;SDS011;28985;47.456;19.016;2022-08-01T07:11:40;4.50;;;4.25;;
42296;SDS011;28985;47.456;19.016;2022-08-01T07:14:07;3.90;;;3.70;;
42296;SDS011;28985;47.456;19.016;2022-08-01T07:16:34;3.83;;;3.72;;
42296;SDS011;28985;47.456;19.016;2022-08-01T07:19:00;5.10;;;4.80;;
42296;SDS011;28985;47.456;19.016;2022-08-01T07:21:27;5.40;;;5.10;;
42296;SDS011;28985;47.456;19.016;2022-08-01T07:24:07;7.20;;;6.80;;
42296;SDS011;28985;47.456;19.016;2022-08-01T07:26:42;7.63;;;6.35;;
42296;SDS011;28985;47.456;19.016;2022-08-01T07:29:20;8.35;;;7.65;;
42296;SDS011;28985;47.456;19.016;2022-08-01T07:31:48;7.85;;;7.55;;
42296;SDS011;28985;47.456;19.016;2022-08-01T07:34:14;9.80;;;9.20;;
42296;SDS011;28985;47.456;19.016;2022-08-01T07:36:42;9.73;;;9.25;;
42296;SDS011;28985;47.456;19.016;2022-08-01T07:39:08;14.85;;;14.20;;
42296;SDS011;28985;47.456;19.016;2022-08-01T07:41:35;12.10;;;11.52;;
42296;SDS011;28985;47.456;19.016;2022-08-01T07:44:21;12.85;;;12.25;;
42296;SDS011;28985;47.456;19.016;2022-08-01T07:46:48;9.65;;;9.25;;
42296;SDS011;28985;47.456;19.016;2022-08-01T07:49:14;8.05;;;7.57;;
42296;SDS011;28985;47.456;19.016;2022-08-01T07:51:41;9.05;;;8.52;;
42296;SDS011;28985;47.456;19.016;2022-08-01T07:54:28;10.00;;;9.48;;
42296;SDS011;28985;47.456;19.016;2022-08-01T07:56:59;13.25;;;12.65;;
42296;SDS011;28985;47.456;19.016;2022-08-01T07:59:27;14.57;;;13.93;;
42296;SDS011;28985;47.456;19.016;2022-08-01T08:01:53;18.05;;;17.35;;
42296;SDS011;28985;47.456;19.016;2022-08-01T08:04:20;20.20;;;19.30;;
42296;SDS011;28985;47.456;19.016;2022-08-01T08:06:47;19.67;;;18.88;;
42296;SDS011;28985;47.456;19.016;2022-08-01T08:09:13;25.05;;;23.88;;
42296;SDS011;28985;47.456;19.016;2022-08-01T08:11:44;33.47;;;32.17;;
42296;SDS011;28985;47.456;19.016;2022-08-01T08:14:13;39.20;;;37.70;;
42296;SDS011;28985;47.456;19.016;2022-08-01T08:16:41;42.88;;;41.08;;
42296;SDS011;28985;47.456;19.016;2022-08-01T08:19:09;43.83;;;42.03;;
42296;SDS011;28985;47.456;19.016;2022-08-01T08:21:36;44.22;;;42.40;;
42296;SDS011;28985;47.456;19.016;2022-08-01T08:24:04;48.78;;;46.88;;
42296;SDS011;28985;47.456;19.016;2022-08-01T08:26:57;46.38;;;44.67;;
42296;SDS011;28985;47.456;19.016;2022-08-01T08:29:25;52.17;;;50.22;;
42296;SDS011;28985;47.456;19.016;2022-08-01T08:31:53;46.13;;;44.17;;
42296;SDS011;28985;47.456;19.016;2022-08-01T08:34:24;46.95;;;45.10;;
42296;SDS011;28985;47.456;19.016;2022-08-01T08:36:52;50.67;;;48.80;;
42296;SDS011;28985;47.456;19.016;2022-08-01T08:39:20;51.42;;;49.42;;
42296;SDS011;28985;47.456;19.016;2022-08-01T08:41:47;54.13;;;52.13;;
42296;SDS011;28985;47.456;19.016;2022-08-01T08:44:15;47.42;;;45.63;;
42296;SDS011;28985;47.456;19.016;2022-08-01T08:46:46;51.35;;;49.25;;
42296;SDS011;28985;47.456;19.016;2022-08-01T08:49:16;51.00;;;49.05;;
42296;SDS011;28985;47.456;19.016;2022-08-01T08:51:47;50.78;;;48.78;;
42296;SDS011;28985;47.456;19.016;2022-08-01T08:54:17;48.25;;;46.47;;
42296;SDS011;28985;47.456;19.016;2022-08-01T08:56:46;50.35;;;48.38;;
42296;SDS011;28985;47.456;19.016;2022-08-01T08:59:14;48.88;;;46.83;;
42296;SDS011;28985;47.456;19.016;2022-08-01T09:01:41;49.33;;;47.40;;
42296;SDS011;28985;47.456;19.016;2022-08-01T09:04:09;50.30;;;48.33;;
42296;SDS011;28985;47.456;19.016;2022-08-01T09:06:37;47.22;;;45.53;;
42296;SDS011;28985;47.456;19.016;2022-08-01T09:09:04;48.35;;;46.53;;
42296;SDS011;28985;47.456;19.016;2022-08-01T09:11:32;49.88;;;48.03;;
42296;SDS011;28985;47.456;19.016;2022-08-01T09:14:12;51.10;;;49.10;;
42296;SDS011;28985;47.456;19.016;2022-08-01T09:16:44;52.08;;;49.88;;
42296;SDS011;28985;47.456;19.016;2022-08-01T09:19:15;51.88;;;49.83;;
42296;SDS011;28985;47.456;19.016;2022-08-01T09:22:05;53.28;;;51.28;;
42296;SDS011;28985;47.456;19.016;2022-08-01T09:24:34;52.40;;;49.67;;
42296;SDS011;28985;47.456;19.016;2022-08-01T09:27:14;66.07;;;63.47;;
42296;SDS011;28985;47.456;19.016;2022-08-01T09:29:47;61.78;;;59.38;;
42296;SDS011;28985;47.456;19.016;2022-08-01T09:32:30;59.45;;;57.22;;
42296;SDS011;28985;47.456;19.016;2022-08-01T09:40:45;68.65;;;66.03;;
42296;SDS011;28985;47.456;19.016;2022-08-01T09:43:14;69.40;;;66.80;;
42296;SDS011;28985;47.456;19.016;2022-08-01T09:45:41;73.40;;;70.38;;
42296;SDS011;28985;47.456;19.016;2022-08-01T09:48:10;78.63;;;75.57;;
42296;SDS011;28985;47.456;19.016;2022-08-01T09:50:47;73.93;;;71.00;;
42296;SDS011;28985;47.456;19.016;2022-08-01T09:53:15;79.05;;;75.95;;
42296;SDS011;28985;47.456;19.016;2022-08-01T09:56:01;80.13;;;77.05;;
42296;SDS011;28985;47.456;19.016;2022-08-01T09:58:48;77.57;;;74.53;;
42296;SDS011;28985;47.456;19.016;2022-08-01T10:01:26;77.25;;;74.13;;
42296;SDS011;28985;47.456;19.016;2022-08-01T10:04:13;84.63;;;81.32;;
42296;SDS011;28985;47.456;19.016;2022-08-01T10:06:46;89.97;;;86.63;;
42296;SDS011;28985;47.456;19.016;2022-08-01T10:09:28;94.63;;;90.97;;
42296;SDS011;28985;47.456;19.016;2022-08-01T10:12:06;97.20;;;93.53;;
42296;SDS011;28985;47.456;19.016;2022-08-01T10:14:34;103.05;;;99.10;;
42296;SDS011;28985;47.456;19.016;2022-08-01T10:17:03;107.93;;;103.82;;
42296;SDS011;28985;47.456;19.016;2022-08-01T10:19:34;117.95;;;113.40;;
42296;SDS011;28985;47.456;19.016;2022-08-01T10:22:04;119.63;;;114.97;;
42296;SDS011;28985;47.456;19.016;2022-08-01T10:24:36;127.35;;;122.50;;
42296;SDS011;28985;47.456;19.016;2022-08-01T10:27:07;137.63;;;132.15;;
42296;SDS011;28985;47.456;19.016;2022-08-01T10:29:50;143.43;;;137.90;;
42296;SDS011;28985;47.456;19.016;2022-08-01T10:35:00;132.10;;;127.00;;
42296;SDS011;28985;47.456;19.016;2022-08-01T10:37:35;153.48;;;147.65;;
42296;SDS011;28985;47.456;19.016;2022-08-01T10:40:18;122.18;;;117.45;;
42296;SDS011;28985;47.456;19.016;2022-08-01T10:43:02;129.95;;;125.05;;
42296;SDS011;28985;47.456;19.016;2022-08-01T10:45:29;152.52;;;146.70;;
42296;SDS011;28985;47.456;19.016;2022-08-01T10:50:38;155.43;;;149.32;;
42296;SDS011;28985;47.456;19.016;2022-08-01T10:53:13;133.82;;;128.80;;
42296;SDS011;28985;47.456;19.016;2022-08-01T10:58:31;125.57;;;120.80;;
42296;SDS011;28985;47.456;19.016;2022-08-01T11:01:20;140.60;;;135.20;;
42296;SDS011;28985;47.456;19.016;2022-08-01T11:09:22;135.33;;;130.23;;
42296;SDS011;28985;47.456;19.016;2022-08-01T11:12:12;138.02;;;132.77;;
42296;SDS011;28985;47.456;19.016;2022-08-01T11:17:31;144.40;;;138.80;;
42296;SDS011;28985;47.456;19.016;2022-08-01T11:28:24;162.90;;;156.57;;
42296;SDS011;28985;47.456;19.016;2022-08-01T11:41:39;179.40;;;172.48;;
42296;SDS011;28985;47.456;19.016;2022-08-01T11:44:08;191.38;;;184.13;;
42296;SDS011;28985;47.456;19.016;2022-08-01T11:49:48;190.13;;;182.68;;
42296;SDS011;28985;47.456;19.016;2022-08-01T11:52:28;147.30;;;141.73;;
42296;SDS011;28985;47.456;19.016;2022-08-01T11:57:36;178.10;;;171.43;;
42296;SDS011;28985;47.456;19.016;2022-08-01T12:02:43;182.60;;;175.73;;
42296;SDS011;28985;47.456;19.016;2022-08-01T12:05:24;134.07;;;128.68;;
42296;SDS011;28985;47.456;19.016;2022-08-01T12:07:52;159.82;;;153.75;;
42296;SDS011;28985;47.456;19.016;2022-08-01T12:10:22;191.50;;;184.20;;
42296;SDS011;28985;47.456;19.016;2022-08-01T12:12:54;104.03;;;100.13;;
42296;SDS011;28985;47.456;19.016;2022-08-01T12:15:28;109.35;;;105.25;;
42296;SDS011;28985;47.456;19.016;2022-08-01T12:17:57;106.47;;;102.15;;
42296;SDS011;28985;47.456;19.016;2022-08-01T12:20:27;90.63;;;87.20;;
42296;SDS011;28985;47.456;19.016;2022-08-01T12:23:04;97.88;;;94.22;;
42296;SDS011;28985;47.456;19.016;2022-08-01T12:25:35;76.50;;;73.70;;
42296;SDS011;28985;47.456;19.016;2022-08-01T12:28:03;113.05;;;108.82;;
42296;SDS011;28985;47.456;19.016;2022-08-01T12:30:32;88.90;;;85.45;;
42296;SDS011;28985;47.456;19.016;2022-08-01T12:33:04;106.03;;;102.00;;
42296;SDS011;28985;47.456;19.016;2022-08-01T12:35:36;73.57;;;70.78;;
42296;SDS011;28985;47.456;19.016;2022-08-01T12:40:33;59.58;;;57.38;;
42296;SDS011;28985;47.456;19.016;2022-08-01T12:43:06;68.40;;;65.80;;
42296;SDS011;28985;47.456;19.016;2022-08-01T12:45:44;68.50;;;65.97;;
42296;SDS011;28985;47.456;19.016;2022-08-01T12:48:22;61.22;;;58.90;;
42296;SDS011;28985;47.456;19.016;2022-08-01T12:50:49;62.03;;;59.72;;
42296;SDS011;28985;47.456;19.016;2022-08-01T12:53:19;77.57;;;74.68;;
42296;SDS011;28985;47.456;19.016;2022-08-01T12:55:50;59.03;;;56.78;;
42296;SDS011;28985;47.456;19.016;2022-08-01T12:58:29;61.80;;;59.40;;
42296;SDS011;28985;47.456;19.016;2022-08-01T13:01:10;66.53;;;63.92;;
42296;SDS011;28985;47.456;19.016;2022-08-01T13:03:39;57.35;;;55.25;;
42296;SDS011;28985;47.456;19.016;2022-08-01T13:06:12;67.68;;;65.07;;
42296;SDS011;28985;47.456;19.016;2022-08-01T13:08:42;64.15;;;61.75;;
42296;SDS011;28985;47.456;19.016;2022-08-01T13:11:10;74.85;;;72.03;;
42296;SDS011;28985;47.456;19.016;2022-08-01T13:13:51;60.60;;;58.38;;
42296;SDS011;28985;47.456;19.016;2022-08-01T13:16:19;67.22;;;64.70;;
42296;SDS011;28985;47.456;19.016;2022-08-01T13:18:59;73.45;;;70.68;;
42296;SDS011;28985;47.456;19.016;2022-08-01T13:21:27;62.95;;;60.65;;
42296;SDS011;28985;47.456;19.016;2022-08-01T13:24:15;67.95;;;64.97;;
42296;SDS011;28985;47.456;19.016;2022-08-01T13:26:49;84.72;;;81.50;;
42296;SDS011;28985;47.456;19.016;2022-08-01T13:29:18;68.28;;;65.47;;
42296;SDS011;28985;47.456;19.016;2022-08-01T13:31:47;69.57;;;66.97;;
42296;SDS011;28985;47.456;19.016;2022-08-01T13:34:14;74.50;;;71.65;;
42296;SDS011;28985;47.456;19.016;2022-08-01T13:36:41;73.15;;;70.28;;
42296;SDS011;28985;47.456;19.016;2022-08-01T13:39:16;80.50;;;77.40;;
42296;SDS011;28985;47.456;19.016;2022-08-01T13:42:00;75.75;;;72.85;;
42296;SDS011;28985;47.456;19.016;2022-08-01T13:44:27;75.93;;;73.15;;
42296;SDS011;28985;47.456;19.016;2022-08-01T13:46:53;83.30;;;80.15;;
42296;SDS011;28985;47.456;19.016;2022-08-01T13:49:22;90.72;;;87.07;;
42296;SDS011;28985;47.456;19.016;2022-08-01T13:51:49;85.68;;;82.43;;
42296;SDS011;28985;47.456;19.016;2022-08-01T13:54:17;98.13;;;94.43;;
42296;SDS011;28985;47.456;19.016;2022-08-01T13:56:44;115.30;;;110.55;;
42296;SDS011;28985;47.456;19.016;2022-08-01T13:59:10;113.80;;;109.55;;
42296;SDS011;28985;47.456;19.016;2022-08-01T14:01:37;98.00;;;94.38;;
42296;SDS011;28985;47.456;19.016;2022-08-01T14:04:04;109.95;;;105.80;;
42296;SDS011;28985;47.456;19.016;2022-08-01T14:06:31;93.45;;;89.90;;
42296;SDS011;28985;47.456;19.016;2022-08-01T14:08:58;88.55;;;85.15;;
42296;SDS011;28985;47.456;19.016;2022-08-01T14:11:26;94.18;;;90.47;;
42296;SDS011;28985;47.456;19.016;2022-08-01T14:14:02;93.43;;;89.72;;
42296;SDS011;28985;47.456;19.016;2022-08-01T14:16:33;96.75;;;93.05;;
42296;SDS011;28985;47.456;19.016;2022-08-01T14:19:01;83.97;;;80.78;;
42296;SDS011;28985;47.456;19.016;2022-08-01T14:21:29;77.32;;;74.38;;
42296;SDS011;28985;47.456;19.016;2022-08-01T14:23:55;88.43;;;85.10;;
42296;SDS011;28985;47.456;19.016;2022-08-01T14:26:22;71.78;;;68.93;;
42296;SDS011;28985;47.456;19.016;2022-08-01T14:28:48;77.07;;;73.78;;
42296;SDS011;28985;47.456;19.016;2022-08-01T14:31:15;89.68;;;86.20;;
42296;SDS011;28985;47.456;19.016;2022-08-01T14:33:42;81.82;;;78.63;;
42296;SDS011;28985;47.456;19.016;2022-08-01T14:36:08;78.38;;;75.45;;
42296;SDS011;28985;47.456;19.016;2022-08-01T14:38:55;77.75;;;74.88;;
42296;SDS011;28985;47.456;19.016;2022-08-01T14:41:26;84.93;;;81.63;;
42296;SDS011;28985;47.456;19.016;2022-08-01T14:43:53;63.53;;;61.13;;
42296;SDS011;28985;47.456;19.016;2022-08-01T14:46:19;69.63;;;67.13;;
42296;SDS011;28985;47.456;19.016;2022-08-01T14:48:46;63.97;;;61.63;;
42296;SDS011;28985;47.456;19.016;2022-08-01T14:51:13;63.25;;;60.95;;
42296;SDS011;28985;47.456;19.016;2022-08-01T14:53:39;58.95;;;56.75;;
42296;SDS011;28985;47.456;19.016;2022-08-01T14:56:11;54.00;;;52.00;;
42296;SDS011;28985;47.456;19.016;2022-08-01T14:58:38;52.35;;;50.35;;
42296;SDS011;28985;47.456;19.016;2022-08-01T15:01:04;44.97;;;43.28;;
42296;SDS011;28985;47.456;19.016;2022-08-01T15:03:32;44.30;;;42.53;;
42296;SDS011;28985;47.456;19.016;2022-08-01T15:05:58;43.17;;;41.53;;
42296;SDS011;28985;47.456;19.016;2022-08-01T15:08:25;38.25;;;36.85;;
42296;SDS011;28985;47.456;19.016;2022-08-01T15:10:52;34.28;;;32.78;;
42296;SDS011;28985;47.456;19.016;2022-08-01T15:13:19;31.83;;;30.63;;
42296;SDS011;28985;47.456;19.016;2022-08-01T15:15:45;29.50;;;28.40;;
42296;SDS011;28985;47.456;19.016;2022-08-01T15:18:13;25.60;;;24.60;;
42296;SDS011;28985;47.456;19.016;2022-08-01T15:20:39;23.15;;;22.08;;
42296;SDS011;28985;47.456;19.016;2022-08-01T15:23:06;22.40;;;21.60;;
42296;SDS011;28985;47.456;19.016;2022-08-01T15:25:33;20.23;;;19.42;;
42296;SDS011;28985;47.456;19.016;2022-08-01T15:28:10;18.50;;;17.80;;
42296;SDS011;28985;47.456;19.016;2022-08-01T15:30:37;18.77;;;18.08;;
42296;SDS011;28985;47.456;19.016;2022-08-01T15:33:04;18.70;;;17.98;;
42296;SDS011;28985;47.456;19.016;2022-08-01T15:35:31;19.00;;;18.23;;
42296;SDS011;28985;47.456;19.016;2022-08-01T15:37:58;18.60;;;17.90;;